Kurthwood, Louisiana
Current Conditions -  °F | °C
As of 7:56 AM on Monday 22 Dec 2014 (Local Time) from KAQV Reporting Station
Moderate Fog Moderate Fog  
Wind Chill: 53°   Ceiling: 200
Heat Index: 53°   Visibility: 0.25mi
Dew Point: 51°   Wind: 7mph
Humidity: 93%   Direction: 170°S
Pressure: 29.76"   Gusts: NA
Location:  31.34°N, 93.17°W
Report Text: KAQV 221356Z AUTO 17006KT 1/4SM FG VV002 12/11 A2976 RMK AO2 SLP077 T01170106 $
Loading
Personal Weather Stations






























Interactive Weather Map New forecast layout! Learn more

10-Day Weather Forecast

Advertisements
Track Severe Weather on mobile